Terminal Aerodrome Forecast
Issued by NWS

Home | Current Version | Previous Version | Graphics & Text | Print | Product List | Glossary On
Versions: 1 2 3 4 5 6 7 8 9 10 11 12 13 14 15 16
000
FTUS43 KBIS 240500
TAFJMS
TAF
KJMS 240520Z 2406/2506 10013KT P6SM -SHRA VCTS SCT060 BKN080CB
     FM241300 09010KT P6SM OVC035
     FM241700 12009KT P6SM BKN040=

USA.gov is the U.S. government's official web portal to all federal, state and local government web resources and services.